createdAt,value
2023-04-21T00:01:48.744Z,2.88
2023-04-21T00:04:15.509Z,2.45
2023-04-21T00:06:42.045Z,2.67
2023-04-21T00:09:08.831Z,1.95
2023-04-21T00:11:35.525Z,2.33
2023-04-21T00:14:01.904Z,2.03
2023-04-21T00:16:28.339Z,2.33
2023-04-21T00:18:54.756Z,2.35
2023-04-21T00:21:21.138Z,2.55
2023-04-21T00:23:47.514Z,2.60
2023-04-21T00:26:13.929Z,2.25
2023-04-21T00:28:40.379Z,2.63
2023-04-21T00:31:06.828Z,2.15
2023-04-21T00:33:33.321Z,3.17
2023-04-21T00:35:59.932Z,2.13
2023-04-21T00:38:26.360Z,2.33
2023-04-21T00:40:52.844Z,2.38
2023-04-21T00:43:19.240Z,2.22
2023-04-21T00:45:48.733Z,2.10
2023-04-21T00:48:15.314Z,2.08
2023-04-21T00:50:42.236Z,2.20
2023-04-21T00:53:09.165Z,2.20
2023-04-21T00:55:35.859Z,2.10
2023-04-21T00:58:02.806Z,2.47
2023-04-21T01:00:29.367Z,2.20
2023-04-21T01:02:56.316Z,2.72
2023-04-21T01:05:23.154Z,2.35
2023-04-21T01:07:49.622Z,2.30
2023-04-21T01:10:16.040Z,2.10
2023-04-21T01:12:45.771Z,2.00
2023-04-21T01:15:12.863Z,2.25
2023-04-21T01:17:40.358Z,2.33
2023-04-21T01:20:12.310Z,2.33
2023-04-21T01:22:39.283Z,2.30
2023-04-21T01:25:06.066Z,2.08
2023-04-21T01:27:32.580Z,2.25
2023-04-21T01:29:59.066Z,2.28
2023-04-21T01:32:27.204Z,2.13
2023-04-21T01:34:54.069Z,1.80
2023-04-21T01:37:23.414Z,2.00
2023-04-21T01:39:52.298Z,2.05
2023-04-21T01:42:19.189Z,2.10
2023-04-21T01:44:46.987Z,1.90
2023-04-21T01:47:13.766Z,2.00
2023-04-21T01:49:40.156Z,1.80
2023-04-21T01:52:06.543Z,2.20
2023-04-21T01:54:35.140Z,2.05
2023-04-21T01:57:02.523Z,1.67
2023-04-21T01:59:29.015Z,2.00
2023-04-21T02:01:55.585Z,2.80
2023-04-21T02:04:22.254Z,2.17
2023-04-21T02:06:48.734Z,2.00
2023-04-21T02:09:15.808Z,2.25
2023-04-21T02:11:42.441Z,1.90
2023-04-21T02:14:08.931Z,2.30
2023-04-21T02:16:35.330Z,2.47
2023-04-21T02:19:02.492Z,2.38
2023-04-21T02:21:28.878Z,2.85
2023-04-21T02:23:55.425Z,2.30
2023-04-21T02:26:21.871Z,2.42
2023-04-21T02:28:49.627Z,2.20
2023-04-21T02:31:16.484Z,2.75
2023-04-21T02:33:43.045Z,2.83
2023-04-21T02:36:09.484Z,2.80
2023-04-21T02:38:35.943Z,2.78
2023-04-21T02:41:02.391Z,2.97
2023-04-21T02:43:28.774Z,2.72
2023-04-21T02:45:55.502Z,2.90
2023-04-21T02:48:24.626Z,2.58
2023-04-21T02:50:53.021Z,2.83
2023-04-21T02:53:22.525Z,2.95
2023-04-21T02:55:48.924Z,2.75
2023-04-21T02:58:16.566Z,3.28
2023-04-21T03:00:42.970Z,2.47
2023-04-21T03:03:09.591Z,3.15
2023-04-21T03:05:36.090Z,3.30
2023-04-21T03:08:02.516Z,2.88
2023-04-21T03:10:31.253Z,2.70
2023-04-21T03:12:57.700Z,2.35
2023-04-21T03:15:24.113Z,2.53
2023-04-21T03:17:50.723Z,2.30
2023-04-21T03:20:17.821Z,2.72
2023-04-21T03:22:44.346Z,2.88
2023-04-21T03:25:12.095Z,2.65
2023-04-21T03:27:38.803Z,3.15
2023-04-21T03:30:06.690Z,2.78
2023-04-21T03:32:33.218Z,3.22
2023-04-21T03:34:59.612Z,3.03
2023-04-21T03:37:25.995Z,2.72
2023-04-21T03:39:52.520Z,2.80
2023-04-21T03:42:18.882Z,3.17
2023-04-21T03:44:45.490Z,2.45
2023-04-21T03:47:11.909Z,2.38
2023-04-21T03:49:38.312Z,3.00
2023-04-21T03:52:05.044Z,3.38
2023-04-21T03:54:31.445Z,2.90
2023-04-21T03:56:57.902Z,2.60
2023-04-21T03:59:24.322Z,2.97
2023-04-21T04:01:50.851Z,3.00
2023-04-21T04:04:17.505Z,2.80
2023-04-21T04:06:44.064Z,2.85
2023-04-21T04:09:10.549Z,2.63
2023-04-21T04:11:36.926Z,3.08
2023-04-21T04:14:03.477Z,2.53
2023-04-21T04:16:30.078Z,2.45
2023-04-21T04:18:56.794Z,2.53
2023-04-21T04:21:23.186Z,2.58
2023-04-21T04:23:51.670Z,2.70
2023-04-21T04:26:18.754Z,2.78
2023-04-21T04:28:45.564Z,2.80
2023-04-21T04:31:13.698Z,2.88
2023-04-21T04:33:43.676Z,2.70
2023-04-21T04:36:11.985Z,2.60
2023-04-21T04:38:38.528Z,2.75
2023-04-21T04:41:05.083Z,2.95
2023-04-21T04:43:33.611Z,2.40
2023-04-21T04:46:00.226Z,2.47
2023-04-21T04:48:26.695Z,2.60
2023-04-21T04:50:53.181Z,2.60
2023-04-21T04:53:19.752Z,2.97
2023-04-21T04:55:47.194Z,2.97
2023-04-21T04:58:13.969Z,3.08
2023-04-21T05:00:40.583Z,2.97
2023-04-21T05:03:07.169Z,3.03
2023-04-21T05:05:33.746Z,3.60
2023-04-21T05:08:02.065Z,2.95
2023-04-21T05:10:28.452Z,3.00
2023-04-21T05:12:54.889Z,2.70
2023-04-21T05:15:22.598Z,3.13
2023-04-21T05:17:49.018Z,3.00
2023-04-21T05:20:15.636Z,2.88
2023-04-21T05:22:42.093Z,3.08
2023-04-21T05:25:10.332Z,3.25
2023-04-21T05:27:36.718Z,3.00
2023-04-21T05:30:03.218Z,3.17
2023-04-21T05:32:29.767Z,3.40
2023-04-21T05:34:56.232Z,3.13
2023-04-21T05:37:22.669Z,3.20
2023-04-21T05:39:49.042Z,3.10
2023-04-21T05:42:15.644Z,3.38
2023-04-21T05:44:42.015Z,2.90
2023-04-21T05:47:08.455Z,3.28
2023-04-21T05:49:38.005Z,3.08
2023-04-21T05:52:04.434Z,4.70
2023-04-21T05:54:30.869Z,3.20
2023-04-21T05:56:57.302Z,2.65
2023-04-21T05:59:23.705Z,2.83
2023-04-21T06:01:50.158Z,2.80
2023-04-21T06:04:16.864Z,2.50
2023-04-21T06:06:44.345Z,4.35
2023-04-21T06:09:15.640Z,3.60
2023-04-21T06:11:42.130Z,3.13
2023-04-21T06:14:08.509Z,3.28
2023-04-21T06:16:35.044Z,3.55
2023-04-21T06:19:01.611Z,3.47
2023-04-21T06:21:28.013Z,3.50
2023-04-21T06:23:54.500Z,3.58
2023-04-21T06:26:21.144Z,3.45
2023-04-21T06:28:47.715Z,3.13
2023-04-21T06:31:15.602Z,3.03
2023-04-21T06:33:42.299Z,4.07
2023-04-21T06:36:08.792Z,3.97
2023-04-21T06:38:35.289Z,3.40
2023-04-21T06:41:02.441Z,4.07
2023-04-21T06:43:28.968Z,3.92
2023-04-21T06:45:55.509Z,3.75
2023-04-21T06:48:21.891Z,4.20
2023-04-21T06:50:48.332Z,3.72
2023-04-21T06:53:14.792Z,3.80
2023-04-21T06:55:41.898Z,3.75
2023-04-21T06:58:08.332Z,3.65
2023-04-21T07:00:34.797Z,3.75
2023-04-21T07:03:01.314Z,4.22
2023-04-21T07:05:27.821Z,3.50
2023-04-21T07:07:59.350Z,3.25
2023-04-21T07:10:26.309Z,3.10
2023-04-21T07:12:53.070Z,3.40
2023-04-21T07:15:19.709Z,3.35
2023-04-21T07:17:46.180Z,3.65
2023-04-21T07:20:12.861Z,3.13
2023-04-21T07:22:39.308Z,3.30
2023-04-21T07:25:08.791Z,3.10
2023-04-21T07:27:36.974Z,3.22
2023-04-21T07:30:05.665Z,3.05
2023-04-21T07:32:33.781Z,3.15
2023-04-21T07:35:01.964Z,3.20
2023-04-21T07:37:28.580Z,2.80
2023-04-21T07:39:57.858Z,3.22
2023-04-21T07:42:25.294Z,2.50
2023-04-21T07:44:52.825Z,2.60
2023-04-21T07:47:19.242Z,3.42
2023-04-21T07:49:45.663Z,3.13
2023-04-21T07:52:12.118Z,2.80
2023-04-21T07:54:38.511Z,3.00
2023-04-21T07:57:07.516Z,2.65
2023-04-21T07:59:33.915Z,2.97
2023-04-21T08:02:00.436Z,3.30
2023-04-21T08:04:27.396Z,2.65
2023-04-21T08:06:54.137Z,2.58
2023-04-21T08:09:20.882Z,2.88
2023-04-21T08:11:47.375Z,2.67
2023-04-21T08:14:14.006Z,2.60
2023-04-21T08:16:42.410Z,2.50
2023-04-21T08:19:09.495Z,2.35
2023-04-21T08:21:36.298Z,2.60
2023-04-21T08:24:02.789Z,2.65
2023-04-21T08:26:30.266Z,2.90
2023-04-21T08:28:57.363Z,2.58
2023-04-21T08:31:23.916Z,2.70
2023-04-21T08:34:01.278Z,3.22
2023-04-21T08:36:30.101Z,3.92
2023-04-21T08:38:57.167Z,3.00
2023-04-21T08:41:24.429Z,3.22
2023-04-21T08:43:50.942Z,3.28
2023-04-21T08:46:17.699Z,2.90
2023-04-21T08:48:45.874Z,3.03
2023-04-21T08:51:14.282Z,2.50
2023-04-21T08:53:41.382Z,3.65
2023-04-21T08:56:11.168Z,2.92
2023-04-21T08:58:38.368Z,2.67
2023-04-21T09:01:04.983Z,2.65
2023-04-21T09:03:31.644Z,2.50
2023-04-21T09:05:59.630Z,2.80
2023-04-21T09:08:28.059Z,2.50
2023-04-21T09:10:55.230Z,2.63
2023-04-21T09:13:28.653Z,2.13
2023-04-21T09:15:56.956Z,1.90
2023-04-21T09:18:24.253Z,2.20
2023-04-21T09:20:52.149Z,2.40
2023-04-21T09:23:18.662Z,3.33
2023-04-21T09:25:46.041Z,2.53
2023-04-21T09:28:13.099Z,2.40
2023-04-21T09:30:40.674Z,2.42
2023-04-21T09:33:27.202Z,2.20
2023-04-21T09:36:00.960Z,2.47
2023-04-21T09:38:27.345Z,2.40
2023-04-21T09:40:59.845Z,2.22
2023-04-21T09:43:26.379Z,2.10
2023-04-21T09:45:53.650Z,2.20
2023-04-21T09:48:22.614Z,2.30
2023-04-21T09:53:21.829Z,1.95
2023-04-21T09:55:50.275Z,2.58
2023-04-21T09:58:19.629Z,2.00
2023-04-21T10:00:46.581Z,2.22
2023-04-21T10:03:16.940Z,2.90
2023-04-21T10:05:43.728Z,2.33
2023-04-21T10:08:11.783Z,2.13
2023-04-21T10:10:38.831Z,2.83
2023-04-21T10:13:05.642Z,1.85
2023-04-21T10:15:33.333Z,1.90
2023-04-21T10:18:19.338Z,1.70
2023-04-21T10:20:56.451Z,1.70
2023-04-21T10:23:49.133Z,1.65
2023-04-21T10:26:23.289Z,2.72
2023-04-21T10:28:52.434Z,1.95
2023-04-21T10:31:20.532Z,2.15
2023-04-21T10:34:05.513Z,1.42
2023-04-21T10:36:32.944Z,1.60
2023-04-21T10:39:02.808Z,1.50
2023-04-21T10:41:30.138Z,2.00
2023-04-21T10:43:59.840Z,1.58
2023-04-21T10:46:36.253Z,1.40
2023-04-21T10:49:10.202Z,1.60
2023-04-21T10:51:57.525Z,1.60
2023-04-21T10:54:25.983Z,1.40
2023-04-21T10:56:53.138Z,1.25
2023-04-21T10:59:20.039Z,1.35
2023-04-21T11:01:46.597Z,1.40
2023-04-21T11:04:16.839Z,1.73
2023-04-21T11:06:43.946Z,1.60
2023-04-21T11:09:10.342Z,1.40
2023-04-21T11:11:36.725Z,1.40
2023-04-21T11:14:03.357Z,1.35
2023-04-21T11:16:30.871Z,1.20
2023-04-21T11:18:57.435Z,2.08
2023-04-21T11:21:24.776Z,1.10
2023-04-21T11:23:55.001Z,1.50
2023-04-21T11:26:34.375Z,1.00
2023-04-21T11:29:05.194Z,1.23
2023-04-21T11:31:32.035Z,1.20
2023-04-21T11:34:01.418Z,1.30
2023-04-21T11:36:29.223Z,1.80
2023-04-21T11:38:55.783Z,1.83
2023-04-21T11:41:22.960Z,1.25
2023-04-21T11:43:50.208Z,1.70
2023-04-21T11:46:18.017Z,1.33
2023-04-21T11:48:44.956Z,1.75
2023-04-21T11:51:14.980Z,1.50
2023-04-21T11:53:41.402Z,1.25
2023-04-21T11:56:09.009Z,1.38
2023-04-21T11:58:35.442Z,1.38
2023-04-21T12:01:10.910Z,1.58
2023-04-21T12:03:37.632Z,1.48
2023-04-21T12:06:04.396Z,1.20
2023-04-21T12:08:31.744Z,1.50
2023-04-21T12:10:59.405Z,1.50
2023-04-21T12:13:29.542Z,1.52
2023-04-21T12:15:56.082Z,1.63
2023-04-21T12:18:26.980Z,1.48
2023-04-21T12:20:53.383Z,1.27
2023-04-21T12:23:19.797Z,1.73
2023-04-21T12:25:46.964Z,1.38
2023-04-21T12:28:15.803Z,1.45
2023-04-21T12:30:42.649Z,1.60
2023-04-21T12:33:09.469Z,1.42
2023-04-21T12:35:36.020Z,1.50
2023-04-21T12:38:02.416Z,1.15
2023-04-21T12:40:28.898Z,1.75
2023-04-21T12:42:55.318Z,1.42
2023-04-21T12:45:21.713Z,1.42
2023-04-21T12:47:48.199Z,1.65
2023-04-21T12:50:15.661Z,1.38
2023-04-21T12:52:42.084Z,1.55
2023-04-21T12:55:08.804Z,1.50
2023-04-21T12:57:35.572Z,1.20
2023-04-21T13:00:01.982Z,1.92
2023-04-21T13:02:28.461Z,1.33
2023-04-21T13:04:54.989Z,1.30
2023-04-21T13:07:22.645Z,1.42
2023-04-21T13:09:49.160Z,1.45
2023-04-21T13:12:15.610Z,1.20
2023-04-21T13:14:41.989Z,1.40
2023-04-21T13:17:08.417Z,1.45
2023-04-21T13:19:35.164Z,1.40
2023-04-21T13:22:01.807Z,1.30
2023-04-21T13:24:28.231Z,1.35
2023-04-21T13:26:54.700Z,1.20
2023-04-21T13:29:21.212Z,1.42
2023-04-21T13:31:47.604Z,1.85
2023-04-21T13:34:14.102Z,1.63
2023-04-21T13:36:40.964Z,1.60
2023-04-21T13:39:10.908Z,1.55
2023-04-21T13:41:37.314Z,1.55
2023-04-21T13:44:03.711Z,1.60
2023-04-21T13:46:30.197Z,1.33
2023-04-21T13:48:56.697Z,1.40
2023-04-21T13:51:23.499Z,1.30
2023-04-21T13:53:49.984Z,1.20
2023-04-21T13:56:16.859Z,1.52
2023-04-21T13:58:43.301Z,1.33
2023-04-21T14:01:09.786Z,1.25
2023-04-21T14:03:36.588Z,1.02
2023-04-21T14:06:03.254Z,1.23
2023-04-21T14:08:29.705Z,1.05
2023-04-21T14:10:56.652Z,1.40
2023-04-21T14:13:35.762Z,1.23
2023-04-21T14:16:07.091Z,1.10
2023-04-21T14:18:33.877Z,1.20
2023-04-21T14:21:00.499Z,1.20
2023-04-21T14:23:26.920Z,1.20
2023-04-21T14:25:54.954Z,1.20
2023-04-21T14:28:21.693Z,1.30
2023-04-21T14:30:48.108Z,1.20
2023-04-21T14:33:14.567Z,1.30
2023-04-21T14:35:42.078Z,1.50
2023-04-21T14:38:08.491Z,1.40
2023-04-21T14:40:34.910Z,1.60
2023-04-21T14:43:01.315Z,1.63
2023-04-21T14:45:28.166Z,1.23
2023-04-21T14:47:54.777Z,1.40
2023-04-21T14:50:21.499Z,1.40
2023-04-21T14:52:49.586Z,1.27
2023-04-21T14:55:16.759Z,1.42
2023-04-21T14:57:43.369Z,1.45
2023-04-21T15:00:10.548Z,1.40
2023-04-21T15:02:37.181Z,1.30
2023-04-21T15:05:03.808Z,1.60
2023-04-21T15:07:30.334Z,1.60
2023-04-21T15:09:56.891Z,1.20
2023-04-21T15:12:23.479Z,1.35
2023-04-21T15:14:49.985Z,1.30
2023-04-21T15:17:16.433Z,1.35
2023-04-21T15:19:42.843Z,1.30
2023-04-21T15:22:09.295Z,1.50
2023-04-21T15:24:35.736Z,1.30
2023-04-21T15:27:02.565Z,1.33
2023-04-21T15:29:29.108Z,1.65
2023-04-21T15:31:55.747Z,1.40
2023-04-21T15:34:22.171Z,1.50
2023-04-21T15:36:48.663Z,1.30
2023-04-21T15:39:15.080Z,1.67
2023-04-21T15:41:41.658Z,1.85
2023-04-21T15:44:08.112Z,1.20
2023-04-21T15:46:34.710Z,1.58
2023-04-21T15:49:01.375Z,1.20
2023-04-21T15:51:28.199Z,1.10
2023-04-21T15:53:54.712Z,1.08
2023-04-21T15:56:21.214Z,1.23
2023-04-21T15:58:47.660Z,1.30
2023-04-21T16:01:14.318Z,1.73
2023-04-21T16:03:41.071Z,1.23
2023-04-21T16:06:07.852Z,1.40
2023-04-21T16:08:34.470Z,1.15
2023-04-21T16:11:01.094Z,1.35
2023-04-21T16:13:27.764Z,1.10
2023-04-21T16:15:54.262Z,1.85
2023-04-21T16:18:20.943Z,0.95
2023-04-21T16:20:47.609Z,1.05
2023-04-21T16:23:15.011Z,0.90
2023-04-21T16:25:41.985Z,0.90
2023-04-21T16:28:09.296Z,1.00
2023-04-21T16:30:36.197Z,1.02
2023-04-21T16:33:02.967Z,0.80
2023-04-21T16:35:29.521Z,0.90
2023-04-21T16:37:56.282Z,1.00
2023-04-21T16:40:24.122Z,1.05
2023-04-21T16:42:50.806Z,0.90
2023-04-21T16:45:17.321Z,0.85
2023-04-21T16:47:43.966Z,0.90
2023-04-21T16:50:12.602Z,0.70
2023-04-21T16:52:39.341Z,0.88
2023-04-21T16:55:06.091Z,0.95
2023-04-21T16:57:33.109Z,0.82
2023-04-21T16:59:59.735Z,0.70
2023-04-21T17:02:26.359Z,0.90
2023-04-21T17:04:52.932Z,0.70
2023-04-21T17:07:19.359Z,0.77
2023-04-21T17:09:45.858Z,0.70
2023-04-21T17:12:12.333Z,2.00
2023-04-21T17:14:39.160Z,1.05
2023-04-21T17:17:06.029Z,0.85
2023-04-21T17:19:32.479Z,0.80
2023-04-21T17:21:58.940Z,0.88
2023-04-21T17:24:25.873Z,1.00
2023-04-21T17:26:52.370Z,0.80
2023-04-21T17:29:18.770Z,0.80
2023-04-21T17:31:48.237Z,0.90
2023-04-21T17:34:14.758Z,1.08
2023-04-21T17:36:41.320Z,0.90
2023-04-21T17:39:08.337Z,0.90
2023-04-21T17:41:34.745Z,0.70
2023-04-21T17:44:01.291Z,0.73
2023-04-21T17:46:27.786Z,0.57
2023-04-21T17:48:54.498Z,0.70
2023-04-21T17:51:23.268Z,1.00
2023-04-21T17:53:49.663Z,0.80
2023-04-21T17:56:16.166Z,0.70
2023-04-21T17:58:42.633Z,0.80
2023-04-21T18:01:09.164Z,0.80
2023-04-21T18:03:41.287Z,1.00
2023-04-21T18:06:11.307Z,0.93
2023-04-21T18:08:38.034Z,1.55
2023-04-21T18:11:04.455Z,1.20
2023-04-21T18:13:30.860Z,1.20
2023-04-21T18:15:57.816Z,1.00
2023-04-21T18:18:24.453Z,0.70
2023-04-21T18:20:50.951Z,0.90
2023-04-21T18:23:19.391Z,0.88
2023-04-21T18:25:45.997Z,0.98
2023-04-21T18:28:13.180Z,0.80
2023-04-21T18:30:40.066Z,0.95
2023-04-21T18:33:06.556Z,1.75
2023-04-21T18:35:33.966Z,0.90
2023-04-21T18:38:00.728Z,0.90
2023-04-21T18:40:27.328Z,0.93
2023-04-21T18:42:53.877Z,1.00
2023-04-21T18:45:20.335Z,0.90
2023-04-21T18:47:46.910Z,0.80
2023-04-21T18:50:13.509Z,0.85
2023-04-21T18:52:39.994Z,1.17
2023-04-21T18:55:06.493Z,1.10
2023-04-21T18:57:32.993Z,1.10
2023-04-21T19:00:00.310Z,1.00
2023-04-21T19:02:28.312Z,1.50
2023-04-21T19:04:54.827Z,1.80
2023-04-21T19:07:22.088Z,0.90
2023-04-21T19:09:48.527Z,0.93
2023-04-21T19:12:15.974Z,1.10
2023-04-21T19:14:47.036Z,1.20
2023-04-21T19:17:14.243Z,0.80
2023-04-21T19:19:41.350Z,0.80
2023-04-21T19:22:07.833Z,1.10
2023-04-21T19:24:34.404Z,1.17
2023-04-21T19:27:02.370Z,1.10
2023-04-21T19:29:28.793Z,0.90
2023-04-21T19:31:55.454Z,1.02
2023-04-21T19:34:22.236Z,0.90
2023-04-21T19:36:48.829Z,0.90
2023-04-21T19:39:15.262Z,1.15
2023-04-21T19:41:41.655Z,0.82
2023-04-21T19:44:08.088Z,1.00
2023-04-21T19:46:34.758Z,0.88
2023-04-21T19:49:01.311Z,1.38
2023-04-21T19:51:27.914Z,1.80
2023-04-21T19:54:09.972Z,1.13
2023-04-21T19:56:38.119Z,1.05
2023-04-21T19:59:05.616Z,1.35
2023-04-21T20:01:32.577Z,1.38
2023-04-21T20:03:59.847Z,1.42
2023-04-21T20:06:27.152Z,1.15
2023-04-21T20:08:53.631Z,1.00
2023-04-21T20:11:20.032Z,0.98
2023-04-21T20:13:46.819Z,1.25
2023-04-21T20:16:13.297Z,1.40
2023-04-21T20:18:40.247Z,1.23
2023-04-21T20:21:06.714Z,1.17
2023-04-21T20:23:36.151Z,1.10
2023-04-21T20:26:02.568Z,1.50
2023-04-21T20:28:28.960Z,1.40
2023-04-21T20:30:56.866Z,2.08
2023-04-21T20:33:23.358Z,1.92
2023-04-21T20:35:49.836Z,1.50
2023-04-21T20:38:16.397Z,1.50
2023-04-21T20:40:44.648Z,1.70
2023-04-21T20:43:12.320Z,1.40
2023-04-21T20:45:41.304Z,1.90
2023-04-21T20:48:07.822Z,1.58
2023-04-21T20:50:34.252Z,1.98
2023-04-21T20:53:00.667Z,1.70
2023-04-21T20:55:27.123Z,1.52
2023-04-21T20:57:55.438Z,1.63
2023-04-21T21:00:21.876Z,1.50
2023-04-21T21:02:48.444Z,1.75
2023-04-21T21:05:14.941Z,1.42
2023-04-21T21:07:41.370Z,1.50
2023-04-21T21:10:08.182Z,1.80
2023-04-21T21:12:34.645Z,1.92
2023-04-21T21:15:01.135Z,2.00
2023-04-21T21:17:27.597Z,1.83
2023-04-21T21:19:54.070Z,1.98
2023-04-21T21:22:20.497Z,2.20
2023-04-21T21:24:46.934Z,2.13
2023-04-21T21:27:13.362Z,2.25
2023-04-21T21:29:40.105Z,2.08
2023-04-21T21:32:07.058Z,2.53
2023-04-21T21:34:33.442Z,4.97
2023-04-21T21:36:59.951Z,3.97
2023-04-21T21:39:29.387Z,3.58
2023-04-21T21:41:56.974Z,3.05
2023-04-21T21:44:23.386Z,3.35
2023-04-21T21:46:50.246Z,2.05
2023-04-21T21:49:16.749Z,2.10
2023-04-21T21:51:43.184Z,1.92
2023-04-21T21:54:09.632Z,1.98
2023-04-21T21:56:39.098Z,1.88
2023-04-21T21:59:06.292Z,1.52
2023-04-21T22:01:32.713Z,1.60
2023-04-21T22:03:59.217Z,1.70
2023-04-21T22:06:27.726Z,1.58
2023-04-21T22:08:54.229Z,1.33
2023-04-21T22:11:20.833Z,1.65
2023-04-21T22:13:50.209Z,1.60
2023-04-21T22:16:16.862Z,1.60
2023-04-21T22:18:43.696Z,1.73
2023-04-21T22:21:10.213Z,2.30
2023-04-21T22:23:36.705Z,1.90
2023-04-21T22:26:03.426Z,1.75
2023-04-21T22:28:29.861Z,1.55
2023-04-21T22:30:58.504Z,1.40
2023-04-21T22:33:24.951Z,1.58
2023-04-21T22:35:51.405Z,2.17
2023-04-21T22:38:17.884Z,1.73
2023-04-21T22:40:44.327Z,1.98
2023-04-21T22:43:10.863Z,1.55
2023-04-21T22:45:37.367Z,1.35
2023-04-21T22:48:03.884Z,1.83
2023-04-21T22:50:30.679Z,1.52
2023-04-21T22:52:57.442Z,1.42
2023-04-21T22:55:25.527Z,1.45
2023-04-21T22:57:51.970Z,1.33
2023-04-21T23:00:18.350Z,1.98
2023-04-21T23:02:44.869Z,1.52
2023-04-21T23:05:11.622Z,1.65
2023-04-21T23:07:38.056Z,1.60
2023-04-21T23:10:04.667Z,1.52
2023-04-21T23:12:31.057Z,1.52
2023-04-21T23:14:57.441Z,1.30
2023-04-21T23:17:23.836Z,1.27
2023-04-21T23:19:50.262Z,1.67
2023-04-21T23:22:16.712Z,1.50
2023-04-21T23:24:43.100Z,1.60
2023-04-21T23:27:09.584Z,1.40
2023-04-21T23:29:38.395Z,1.70
2023-04-21T23:32:05.597Z,2.38
2023-04-21T23:34:32.168Z,1.48
2023-04-21T23:36:58.542Z,1.50
2023-04-21T23:39:25.062Z,1.65
2023-04-21T23:41:51.511Z,1.40
2023-04-21T23:44:17.918Z,1.40
2023-04-21T23:46:44.339Z,1.60
2023-04-21T23:49:11.391Z,1.50
2023-04-21T23:51:37.803Z,1.70
2023-04-21T23:54:04.191Z,1.40
2023-04-21T23:56:30.847Z,1.75
2023-04-21T23:58:57.333Z,1.85
